createdAt,value
2018-06-28T00:00:47.582Z,99.90
2018-06-28T00:03:15.913Z,99.90
2018-06-28T00:05:44.250Z,99.90
2018-06-28T00:08:12.560Z,99.90
2018-06-28T00:10:40.858Z,99.90
2018-06-28T00:13:09.194Z,99.90
2018-06-28T00:15:37.510Z,99.90
2018-06-28T00:18:05.815Z,99.90
2018-06-28T00:20:34.083Z,99.90
2018-06-28T00:23:02.418Z,99.90
2018-06-28T00:25:30.735Z,99.90
2018-06-28T00:27:59.074Z,99.90
2018-06-28T00:30:27.373Z,99.90
2018-06-28T00:32:55.767Z,99.90
2018-06-28T00:35:24.093Z,99.90
2018-06-28T00:37:52.378Z,99.90
2018-06-28T00:40:20.706Z,99.90
2018-06-28T00:42:49.000Z,99.90
2018-06-28T00:45:17.277Z,99.90
2018-06-28T00:47:45.633Z,99.90
2018-06-28T00:50:14.012Z,99.90
2018-06-28T00:52:42.338Z,99.90
2018-06-28T00:55:10.620Z,99.90
2018-06-28T00:57:39.026Z,99.90
2018-06-28T01:00:07.610Z,99.90
2018-06-28T01:02:35.954Z,99.90
2018-06-28T01:05:04.318Z,99.90
2018-06-28T01:07:32.621Z,99.90
2018-06-28T01:10:00.928Z,99.90
2018-06-28T01:12:29.234Z,99.90
2018-06-28T01:14:57.584Z,99.90
2018-06-28T01:17:25.964Z,99.90
2018-06-28T01:19:55.095Z,99.90
2018-06-28T01:22:23.400Z,99.90
2018-06-28T01:24:51.737Z,99.90
2018-06-28T01:27:20.027Z,99.90
2018-06-28T01:29:48.336Z,99.90
2018-06-28T01:32:16.624Z,99.90
2018-06-28T01:34:44.949Z,99.90
2018-06-28T01:37:13.300Z,99.90
2018-06-28T01:39:41.632Z,99.90
2018-06-28T01:42:35.008Z,99.90
2018-06-28T01:45:03.392Z,99.90
2018-06-28T01:47:31.732Z,99.90
2018-06-28T01:52:34.778Z,99.90
2018-06-28T01:55:03.111Z,99.90
2018-06-28T01:57:31.496Z,99.90
2018-06-28T01:59:59.816Z,99.90
2018-06-28T02:02:28.150Z,99.90
2018-06-28T02:04:56.426Z,99.90
2018-06-28T02:07:24.706Z,99.90
2018-06-28T02:09:53.032Z,99.90
2018-06-28T02:12:21.520Z,99.90
2018-06-28T02:14:49.842Z,99.90
2018-06-28T02:17:18.168Z,99.90
2018-06-28T02:19:46.501Z,99.90
2018-06-28T02:22:14.876Z,99.90
2018-06-28T02:24:43.174Z,99.90
2018-06-28T02:27:11.482Z,99.90
2018-06-28T02:29:39.828Z,99.90
2018-06-28T02:32:08.099Z,99.90
2018-06-28T02:34:36.464Z,99.90
2018-06-28T02:37:04.786Z,99.90
2018-06-28T02:39:33.090Z,99.90
2018-06-28T02:42:01.407Z,99.90
2018-06-28T02:44:29.685Z,99.90
2018-06-28T02:46:57.967Z,99.90
2018-06-28T02:49:26.281Z,99.90
2018-06-28T02:51:54.682Z,99.90
2018-06-28T02:54:22.992Z,99.90
2018-06-28T02:56:51.298Z,99.90
2018-06-28T02:59:19.616Z,99.90
2018-06-28T03:01:47.946Z,99.90
2018-06-28T03:04:16.266Z,99.90
2018-06-28T03:06:44.578Z,99.90
2018-06-28T03:09:12.872Z,99.90
2018-06-28T03:11:41.177Z,99.90
2018-06-28T03:14:15.927Z,99.90
2018-06-28T03:16:44.231Z,99.90
2018-06-28T03:19:12.556Z,99.90
2018-06-28T03:21:40.895Z,99.90
2018-06-28T03:24:09.244Z,99.90
2018-06-28T03:26:37.563Z,99.90
2018-06-28T03:29:05.919Z,99.90
2018-06-28T03:31:34.424Z,99.90
2018-06-28T03:34:02.777Z,99.90
2018-06-28T03:36:31.052Z,99.90
2018-06-28T03:38:59.328Z,99.90
2018-06-28T03:41:27.685Z,99.90
2018-06-28T03:43:56.013Z,99.90
2018-06-28T03:46:24.298Z,99.90
2018-06-28T03:48:52.638Z,99.90
2018-06-28T03:51:20.926Z,99.90
2018-06-28T03:53:49.237Z,99.90
2018-06-28T03:56:17.571Z,99.90
2018-06-28T03:58:45.884Z,99.90
2018-06-28T04:01:14.177Z,99.90
2018-06-28T04:03:42.456Z,99.90
2018-06-28T04:06:10.753Z,99.90
2018-06-28T04:08:39.084Z,99.90
2018-06-28T04:11:07.464Z,99.90
2018-06-28T04:13:36.795Z,99.90
2018-06-28T04:16:05.432Z,99.90
2018-06-28T04:18:33.970Z,99.90
2018-06-28T04:21:02.620Z,99.90
2018-06-28T04:23:30.936Z,99.90
2018-06-28T04:25:59.576Z,99.90
2018-06-28T04:28:27.892Z,99.90
2018-06-28T04:30:56.340Z,99.90
2018-06-28T04:33:24.703Z,99.90
2018-06-28T04:35:53.006Z,99.90
2018-06-28T04:38:21.585Z,99.90
2018-06-28T04:40:49.902Z,99.90
2018-06-28T04:43:18.234Z,99.90
2018-06-28T04:45:46.530Z,99.90
2018-06-28T04:50:42.912Z,99.90
2018-06-28T04:53:11.254Z,99.90
2018-06-28T04:55:39.568Z,99.90
2018-06-28T04:58:07.913Z,99.90
2018-06-28T05:00:36.330Z,99.90
2018-06-28T05:03:04.666Z,99.90
2018-06-28T05:05:32.976Z,99.90
2018-06-28T05:08:01.319Z,99.90
2018-06-28T05:10:29.605Z,99.90
2018-06-28T05:12:57.911Z,99.90
2018-06-28T05:15:26.248Z,99.90
2018-06-28T05:17:54.560Z,99.90
2018-06-28T05:20:22.887Z,99.90
2018-06-28T05:22:51.222Z,99.90
2018-06-28T05:25:19.642Z,99.90
2018-06-28T05:27:47.977Z,99.90
2018-06-28T05:30:16.336Z,99.90
2018-06-28T05:32:44.672Z,99.90
2018-06-28T05:35:13.176Z,99.90
2018-06-28T05:37:41.453Z,99.90
2018-06-28T05:40:09.744Z,99.90
2018-06-28T05:42:38.035Z,99.90
2018-06-28T05:45:06.478Z,99.90
2018-06-28T05:47:34.759Z,99.90
2018-06-28T05:50:03.068Z,99.90
2018-06-28T05:52:31.358Z,99.90
2018-06-28T05:54:59.681Z,99.90
2018-06-28T05:57:28.033Z,99.90
2018-06-28T05:59:56.376Z,99.90
2018-06-28T06:02:24.852Z,99.90
2018-06-28T06:04:53.153Z,99.90
2018-06-28T06:07:21.496Z,99.90
2018-06-28T06:09:49.822Z,99.90
2018-06-28T06:12:18.127Z,99.90
2018-06-28T06:14:46.485Z,99.90
2018-06-28T06:17:14.794Z,99.90
2018-06-28T06:19:43.199Z,99.90
2018-06-28T06:22:11.473Z,99.90
2018-06-28T06:24:39.789Z,99.90
2018-06-28T06:27:08.186Z,99.90
2018-06-28T06:29:36.495Z,99.90
2018-06-28T06:32:04.835Z,99.90
2018-06-28T06:34:33.150Z,99.90
2018-06-28T06:37:01.491Z,99.90
2018-06-28T06:39:29.764Z,99.90
2018-06-28T06:41:58.054Z,99.90
2018-06-28T06:44:26.328Z,99.90
2018-06-28T06:46:56.238Z,99.90
2018-06-28T06:49:24.545Z,99.90
2018-06-28T06:51:52.886Z,99.90
2018-06-28T06:56:49.246Z,99.90
2018-06-28T07:01:45.658Z,99.90
2018-06-28T07:04:13.960Z,99.90
2018-06-28T07:06:42.235Z,99.90
2018-06-28T07:09:12.446Z,99.90
2018-06-28T07:11:41.126Z,99.90
2018-06-28T07:14:10.135Z,99.90
2018-06-28T07:16:38.469Z,99.90
2018-06-28T07:19:06.809Z,99.90
2018-06-28T07:21:35.096Z,99.90
2018-06-28T07:24:03.493Z,99.90
2018-06-28T07:26:31.831Z,99.90
2018-06-28T07:29:00.211Z,99.90
2018-06-28T07:31:28.534Z,99.90
2018-06-28T07:33:56.854Z,99.90
2018-06-28T07:36:25.156Z,99.90
2018-06-28T07:38:53.500Z,99.90
2018-06-28T07:41:21.772Z,99.90
2018-06-28T07:43:50.138Z,99.90
2018-06-28T07:46:18.468Z,99.90
2018-06-28T07:48:46.797Z,99.90
2018-06-28T07:51:15.126Z,99.90
2018-06-28T07:53:43.441Z,99.90
2018-06-28T07:56:11.799Z,99.90
2018-06-28T07:58:40.112Z,99.90
2018-06-28T08:01:08.414Z,99.90
2018-06-28T08:03:36.773Z,99.90
2018-06-28T08:06:05.080Z,99.90
2018-06-28T08:08:33.421Z,99.90
2018-06-28T08:11:01.731Z,99.90
2018-06-28T08:13:30.036Z,99.90
2018-06-28T08:15:58.376Z,99.90
2018-06-28T08:20:54.752Z,99.90
2018-06-28T08:23:23.096Z,99.90
2018-06-28T08:25:51.396Z,99.90
2018-06-28T08:28:19.766Z,99.90
2018-06-28T08:30:48.081Z,99.90
2018-06-28T08:33:16.416Z,99.90
2018-06-28T08:35:44.734Z,99.90
2018-06-28T08:38:13.062Z,99.90
2018-06-28T08:40:41.371Z,99.90
2018-06-28T08:43:09.669Z,99.90
2018-06-28T08:45:37.990Z,99.90
2018-06-28T08:48:06.290Z,99.90
2018-06-28T08:50:34.616Z,99.90
2018-06-28T08:53:02.948Z,99.90
2018-06-28T08:55:31.263Z,99.90
2018-06-28T08:57:59.640Z,99.90
2018-06-28T09:00:27.914Z,99.90
2018-06-28T09:02:56.298Z,99.90
2018-06-28T09:05:24.648Z,99.90
2018-06-28T09:07:52.952Z,99.90
2018-06-28T09:10:21.302Z,99.90
2018-06-28T09:12:49.605Z,99.90
2018-06-28T09:15:17.997Z,99.90
2018-06-28T09:17:46.356Z,99.90
2018-06-28T09:20:14.648Z,99.90
2018-06-28T09:22:43.046Z,99.90
2018-06-28T09:25:11.352Z,99.90
2018-06-28T09:27:39.648Z,99.60
2018-06-28T09:30:08.314Z,99.90
2018-06-28T09:32:36.648Z,99.90
2018-06-28T09:35:05.216Z,99.90
2018-06-28T09:37:33.521Z,98.90
2018-06-28T09:40:01.831Z,99.10
2018-06-28T09:42:30.172Z,98.40
2018-06-28T09:44:58.474Z,99.20
2018-06-28T09:47:26.782Z,97.90
2018-06-28T09:49:55.136Z,98.10
2018-06-28T09:52:23.452Z,97.20
2018-06-28T09:54:51.811Z,97.10
2018-06-28T09:57:20.170Z,97.70
2018-06-28T09:59:48.468Z,97.20
2018-06-28T10:02:16.812Z,96.90
2018-06-28T10:04:45.096Z,96.90
2018-06-28T10:07:13.418Z,96.90
2018-06-28T10:09:41.720Z,97.00
2018-06-28T10:12:10.087Z,96.80
2018-06-28T10:17:07.416Z,96.00
2018-06-28T10:19:35.852Z,94.40
2018-06-28T10:22:04.164Z,93.90
2018-06-28T10:24:32.531Z,94.10
2018-06-28T10:27:00.842Z,94.90
2018-06-28T10:29:29.151Z,95.20
2018-06-28T10:31:57.464Z,94.30
2018-06-28T10:34:25.788Z,94.20
2018-06-28T10:36:54.157Z,94.30
2018-06-28T10:39:22.456Z,94.90
2018-06-28T10:44:18.856Z,92.90
2018-06-28T10:46:47.165Z,92.60
2018-06-28T10:49:15.438Z,93.10
2018-06-28T10:51:43.754Z,93.50
2018-06-28T10:54:12.070Z,93.80
2018-06-28T10:56:40.362Z,93.60
2018-06-28T10:59:08.703Z,93.20
2018-06-28T11:01:37.312Z,91.80
2018-06-28T11:04:05.620Z,91.70
2018-06-28T11:06:34.004Z,91.70
2018-06-28T11:09:02.323Z,91.20
2018-06-28T11:11:30.640Z,91.10
2018-06-28T11:13:58.976Z,91.30
2018-06-28T11:16:27.342Z,92.40
2018-06-28T11:18:55.675Z,91.60
2018-06-28T11:21:23.964Z,91.50
2018-06-28T11:23:52.422Z,91.20
2018-06-28T11:26:20.725Z,89.90
2018-06-28T11:28:49.069Z,90.00
2018-06-28T11:31:17.367Z,91.20
2018-06-28T11:33:45.655Z,90.40
2018-06-28T11:36:14.010Z,89.10
2018-06-28T11:38:42.367Z,87.40
2018-06-28T11:41:10.884Z,89.50
2018-06-28T11:43:39.217Z,90.00
2018-06-28T11:46:07.620Z,87.80
2018-06-28T11:48:35.936Z,84.20
2018-06-28T11:51:04.278Z,84.30
2018-06-28T11:53:32.596Z,85.10
2018-06-28T11:56:00.898Z,85.20
2018-06-28T11:58:29.204Z,83.80
2018-06-28T12:00:57.543Z,85.70
2018-06-28T12:03:25.832Z,84.30
2018-06-28T12:05:54.144Z,85.20
2018-06-28T12:08:22.467Z,85.80
2018-06-28T12:10:50.749Z,85.50
2018-06-28T12:13:19.049Z,83.50
2018-06-28T12:15:47.369Z,83.30
2018-06-28T12:18:15.714Z,83.60
2018-06-28T12:20:44.022Z,83.50
2018-06-28T12:23:12.508Z,82.60
2018-06-28T12:28:08.911Z,83.20
2018-06-28T12:30:37.208Z,82.70
2018-06-28T12:33:05.638Z,82.10
2018-06-28T12:35:33.934Z,81.10
2018-06-28T12:38:02.227Z,82.90
2018-06-28T12:40:30.521Z,83.70
2018-06-28T12:42:58.821Z,81.80
2018-06-28T12:45:27.138Z,81.20
2018-06-28T12:48:04.125Z,81.90
2018-06-28T12:50:32.459Z,80.90
2018-06-28T12:53:01.944Z,80.40
2018-06-28T12:56:37.744Z,78.40
2018-06-28T12:59:07.848Z,79.00
2018-06-28T13:01:36.265Z,77.20
2018-06-28T13:04:04.681Z,77.60
2018-06-28T13:06:33.006Z,78.20
2018-06-28T13:09:01.719Z,78.20
2018-06-28T13:11:30.108Z,77.40
2018-06-28T13:13:58.403Z,76.90
2018-06-28T13:16:28.400Z,73.80
2018-06-28T13:18:56.776Z,73.20
2018-06-28T13:21:25.105Z,73.40
2018-06-28T13:23:53.446Z,74.30
2018-06-28T13:26:21.807Z,74.20
2018-06-28T13:28:50.149Z,73.10
2018-06-28T13:31:18.464Z,73.90
2018-06-28T13:33:46.851Z,74.80
2018-06-28T13:36:15.106Z,71.20
2018-06-28T13:38:43.422Z,73.00
2018-06-28T13:41:11.879Z,72.90
2018-06-28T13:43:40.050Z,71.80
2018-06-28T13:46:08.532Z,71.40
2018-06-28T13:48:36.805Z,70.70
2018-06-28T13:51:05.120Z,68.80
2018-06-28T13:53:33.471Z,69.30
2018-06-28T13:56:01.794Z,67.50
2018-06-28T13:58:30.093Z,67.30
2018-06-28T14:00:58.419Z,70.30
2018-06-28T14:03:26.812Z,66.90
2018-06-28T14:05:55.045Z,68.70
2018-06-28T14:08:23.348Z,66.90
2018-06-28T14:10:51.661Z,64.70
2018-06-28T14:13:20.018Z,66.90
2018-06-28T14:15:48.342Z,62.60
2018-06-28T14:18:16.647Z,62.40
2018-06-28T14:20:44.960Z,64.30
2018-06-28T14:23:13.264Z,62.70
2018-06-28T14:25:41.615Z,61.30
2018-06-28T14:30:37.948Z,61.70
2018-06-28T14:33:06.246Z,61.50
2018-06-28T14:35:34.563Z,62.20
2018-06-28T14:38:02.864Z,61.80
2018-06-28T14:40:31.165Z,59.50
2018-06-28T14:42:59.486Z,60.80
2018-06-28T14:45:27.805Z,60.00
2018-06-28T14:47:56.147Z,59.20
2018-06-28T14:50:24.468Z,58.30
2018-06-28T14:52:52.853Z,58.00
2018-06-28T14:55:21.145Z,59.20
2018-06-28T14:57:49.469Z,58.90
2018-06-28T15:02:45.831Z,57.30
2018-06-28T15:05:14.244Z,57.70
2018-06-28T15:07:42.557Z,56.50
2018-06-28T15:10:10.824Z,57.80
2018-06-28T15:12:39.309Z,57.40
2018-06-28T15:15:07.732Z,58.00
2018-06-28T15:17:36.050Z,58.60
2018-06-28T15:20:04.862Z,59.70
2018-06-28T15:22:33.226Z,59.30
2018-06-28T15:25:01.530Z,59.80
2018-06-28T15:27:29.897Z,60.20
2018-06-28T15:29:58.176Z,59.20
2018-06-28T15:32:26.485Z,59.40
2018-06-28T15:34:54.808Z,61.70
2018-06-28T15:37:23.104Z,59.80
2018-06-28T15:39:51.402Z,62.10
2018-06-28T15:42:19.745Z,62.30
2018-06-28T15:44:48.099Z,61.80
2018-06-28T15:47:16.439Z,62.60
2018-06-28T15:49:44.741Z,62.90
2018-06-28T15:52:13.034Z,63.70
2018-06-28T15:54:41.366Z,64.90
2018-06-28T15:57:09.701Z,61.90
2018-06-28T15:59:38.028Z,62.50
2018-06-28T16:02:06.569Z,63.00
2018-06-28T16:04:34.883Z,63.20
2018-06-28T16:07:03.192Z,64.30
2018-06-28T16:09:31.475Z,63.80
2018-06-28T16:11:59.791Z,63.20
2018-06-28T16:14:28.081Z,63.50
2018-06-28T16:16:56.400Z,63.00
2018-06-28T16:19:24.815Z,64.10
2018-06-28T16:21:53.327Z,64.90
2018-06-28T16:24:21.621Z,64.40
2018-06-28T16:26:49.912Z,65.30
2018-06-28T16:29:18.260Z,65.80
2018-06-28T16:31:46.551Z,64.80
2018-06-28T16:34:14.861Z,66.20
2018-06-28T16:36:43.205Z,67.80
2018-06-28T16:39:11.525Z,65.70
2018-06-28T16:41:39.873Z,66.40
2018-06-28T16:44:08.405Z,67.90
2018-06-28T16:46:36.796Z,68.30
2018-06-28T16:49:05.372Z,68.10
2018-06-28T16:51:33.685Z,67.30
2018-06-28T16:54:02.038Z,68.70
2018-06-28T16:56:30.382Z,70.10
2018-06-28T16:58:58.663Z,69.80
2018-06-28T17:03:55.000Z,70.80
2018-06-28T17:06:23.352Z,70.90
2018-06-28T17:08:51.639Z,71.70
2018-06-28T17:11:20.054Z,72.80
2018-06-28T17:13:48.373Z,72.00
2018-06-28T17:16:16.652Z,72.40
2018-06-28T17:18:44.962Z,72.70
2018-06-28T17:21:13.264Z,73.00
2018-06-28T17:23:41.551Z,73.90
2018-06-28T17:26:09.936Z,73.40
2018-06-28T17:28:38.275Z,74.20
2018-06-28T17:31:06.708Z,74.30
2018-06-28T17:33:35.004Z,74.40
2018-06-28T17:36:03.300Z,74.20
2018-06-28T17:38:31.623Z,75.10
2018-06-28T17:40:59.982Z,75.60
2018-06-28T17:43:28.289Z,74.80
2018-06-28T17:45:56.582Z,75.40
2018-06-28T17:48:24.883Z,75.20
2018-06-28T17:50:53.165Z,74.90
2018-06-28T17:53:21.439Z,75.10
2018-06-28T17:55:49.732Z,75.60
2018-06-28T17:58:18.057Z,75.30
2018-06-28T18:00:46.412Z,76.60
2018-06-28T18:03:14.742Z,76.40
2018-06-28T18:05:43.650Z,76.90
2018-06-28T18:08:12.123Z,76.90
2018-06-28T18:10:40.500Z,77.50
2018-06-28T18:13:08.845Z,77.20
2018-06-28T18:15:37.172Z,77.60
2018-06-28T18:18:05.929Z,77.60
2018-06-28T18:20:34.254Z,77.50
2018-06-28T18:23:02.608Z,77.80
2018-06-28T18:25:31.027Z,78.40
2018-06-28T18:27:59.346Z,78.50
2018-06-28T18:30:27.871Z,78.70
2018-06-28T18:32:56.232Z,78.90
2018-06-28T18:37:52.719Z,80.80
2018-06-28T18:40:21.007Z,81.00
2018-06-28T18:42:49.323Z,81.40
2018-06-28T18:47:45.713Z,81.10
2018-06-28T18:50:14.036Z,83.00
2018-06-28T18:52:42.323Z,83.60
2018-06-28T18:55:10.640Z,83.20
2018-06-28T18:57:38.988Z,82.50
2018-06-28T19:02:35.722Z,84.70
2018-06-28T19:05:04.184Z,85.60
2018-06-28T19:07:32.519Z,87.10
2018-06-28T19:10:06.259Z,88.20
2018-06-28T19:12:34.649Z,88.70
2018-06-28T19:15:08.275Z,88.60
2018-06-28T19:17:36.601Z,89.30
2018-06-28T19:20:05.605Z,90.00
2018-06-28T19:22:39.211Z,89.90
2018-06-28T19:25:07.523Z,90.10
2018-06-28T19:27:35.825Z,90.70
2018-06-28T19:30:09.913Z,90.70
2018-06-28T19:32:38.247Z,90.70
2018-06-28T19:35:06.517Z,90.50
2018-06-28T19:37:40.211Z,90.70
2018-06-28T19:40:14.177Z,91.00
2018-06-28T19:42:47.886Z,91.30
2018-06-28T19:45:16.236Z,91.60
2018-06-28T19:47:44.576Z,92.00
2018-06-28T19:50:18.196Z,92.30
2018-06-28T19:52:52.655Z,92.70
2018-06-28T19:55:21.065Z,93.00
2018-06-28T19:57:49.389Z,93.30
2018-06-28T20:00:23.089Z,93.50
2018-06-28T20:02:56.755Z,93.80
2018-06-28T20:05:25.043Z,94.00
2018-06-28T20:07:53.343Z,94.10
2018-06-28T20:10:22.773Z,94.20
2018-06-28T20:12:56.381Z,94.40
2018-06-28T20:15:41.611Z,94.90
2018-06-28T20:18:15.247Z,94.80
2018-06-28T20:20:43.590Z,95.00
2018-06-28T20:23:11.934Z,95.00
2018-06-28T20:25:40.214Z,95.20
2018-06-28T20:28:14.071Z,95.60
2018-06-28T20:30:47.699Z,96.10
2018-06-28T20:33:21.453Z,96.40
2018-06-28T20:35:49.783Z,96.80
2018-06-28T20:38:18.268Z,97.10
2018-06-28T20:40:46.637Z,97.30
2018-06-28T20:43:14.919Z,97.60
2018-06-28T20:45:43.200Z,97.90
2018-06-28T20:48:11.510Z,98.20
2018-06-28T20:50:39.896Z,98.60
2018-06-28T20:53:08.210Z,99.20
2018-06-28T20:55:36.897Z,99.50
2018-06-28T20:58:05.584Z,99.90
2018-06-28T21:00:33.892Z,99.90
2018-06-28T21:03:02.211Z,99.90
2018-06-28T21:05:30.588Z,99.90
2018-06-28T21:07:59.801Z,99.90
2018-06-28T21:10:28.113Z,99.90
2018-06-28T21:12:56.425Z,99.90
2018-06-28T21:15:24.724Z,99.90
2018-06-28T21:17:53.036Z,99.90
2018-06-28T21:20:21.344Z,99.90
2018-06-28T21:22:49.833Z,99.90
2018-06-28T21:25:18.174Z,99.90
2018-06-28T21:27:46.517Z,99.90
2018-06-28T21:30:14.829Z,99.90
2018-06-28T21:32:43.138Z,99.90
2018-06-28T21:35:11.419Z,99.90
2018-06-28T21:37:39.773Z,99.90
2018-06-28T21:40:08.122Z,99.90
2018-06-28T21:45:04.484Z,99.90
2018-06-28T21:47:32.756Z,99.90
2018-06-28T21:50:01.045Z,99.90
2018-06-28T21:52:29.341Z,99.90
2018-06-28T21:54:57.691Z,99.90
2018-06-28T21:57:26.019Z,99.90
2018-06-28T21:59:54.327Z,99.90
2018-06-28T22:04:50.711Z,99.90
2018-06-28T22:07:19.009Z,99.90
2018-06-28T22:09:47.390Z,99.90
2018-06-28T22:12:15.690Z,99.90
2018-06-28T22:14:44.281Z,99.90
2018-06-28T22:17:12.575Z,99.90
2018-06-28T22:19:40.886Z,99.90
2018-06-28T22:22:09.170Z,99.90
2018-06-28T22:24:37.434Z,99.90
2018-06-28T22:27:05.742Z,99.90
2018-06-28T22:29:34.039Z,99.90
2018-06-28T22:32:02.343Z,99.90
2018-06-28T22:34:30.663Z,99.90
2018-06-28T22:36:58.999Z,99.90
2018-06-28T22:39:27.306Z,99.90
2018-06-28T22:41:55.590Z,99.90
2018-06-28T22:44:23.910Z,99.90
2018-06-28T22:46:52.216Z,99.90
2018-06-28T22:49:20.494Z,99.90
2018-06-28T22:51:48.770Z,99.90
2018-06-28T22:54:17.031Z,99.90
2018-06-28T22:56:45.366Z,99.90
2018-06-28T22:59:13.647Z,99.90
2018-06-28T23:01:41.991Z,99.90
2018-06-28T23:04:10.262Z,99.90
2018-06-28T23:06:38.576Z,99.90
2018-06-28T23:09:08.674Z,99.90
2018-06-28T23:11:36.959Z,99.90
2018-06-28T23:14:05.245Z,99.90
2018-06-28T23:16:33.537Z,99.90
2018-06-28T23:19:01.879Z,99.90
2018-06-28T23:21:30.213Z,99.90
2018-06-28T23:23:58.523Z,99.90
2018-06-28T23:26:26.800Z,99.90
2018-06-28T23:28:55.107Z,99.90
2018-06-28T23:31:23.413Z,99.90
2018-06-28T23:33:51.712Z,99.90
2018-06-28T23:36:19.993Z,99.90
2018-06-28T23:38:48.291Z,99.90
2018-06-28T23:41:16.577Z,99.90
2018-06-28T23:43:44.894Z,99.90
2018-06-28T23:46:13.185Z,99.90
2018-06-28T23:48:41.478Z,99.90
2018-06-28T23:51:09.821Z,99.90
2018-06-28T23:53:38.103Z,99.90
2018-06-28T23:58:34.517Z,99.90
